Airfield :
LOGIN :

Register | Disclaimer

   EN    FR    IT 

 










Legend :    VFR   Marginal VFR   IFR   Intensive IFR   Very Intensive IFR
Visi :
Ceiling :
>= 8 km
>= 3000ft
5 to 8 km
1000 to 3000 ft
1500m to 5 km
500 to 1000 ft
800 to 1500m
200 to 500 ft
< 800m
< 200 ft
Symbols :   Thunderstorms  Fog  Heavy snow  Heavy precipitations  Wind > 20 kt
SIGMETs :     Misc.  Thunderstorms  Icing  Turbulence  Mountain Waves  Volcanic Ashes






- Airport Elevation : 1455 ft


ETIH - Hohenfels Army Air Field

CURRENT METAR :
  • 250756Z AUTO 26010KT 9999 SCT023 OVC080 13/08 A3042 RMK AO2 SLP302 T01310075 $

EXPIRED METARs :
  • 250726Z AUTO 32007KT 9999 BKN024 OVC080 13/08 A3043 RMK AO2 CIG 024V080 SLP304 $
  • 250656Z AUTO 29006KT 9999 FEW020 OVC080 13/08 A3043 RMK AO2 SLP304 T01260079 $
  • 250641Z AUTO 29005KT 9999 SCT018 SCT023 OVC080 13/08 A3043 RMK AO2 SLP304 $
  • 250556Z AUTO 28006KT 9999 BKN018 BKN024 OVC085 13/09 A3042 RMK AO2 CIG 016V020 SLP300 60001 T01280087 10128 20108 52007 $

Expired Forecast.



MET'MAP, your aeronautical weather chart ! - Copyright ORBIFLY December 2007 - Disclaimer

ORBIFLY MET'MAP TEAM :

Programming & Development : Alexandra Zaïnal
Concept & original design : Baudouin d'Aumeries
Assistance for programming : Marc-Olivier Méhu
Technical & hardware support : Manuel Goepfert

Contact : metmap@orbifly.com




SOURCES & CREDITS :

   NOAA